sensor_id;sensor_type;location;lat;lon;timestamp;P1;durP1;ratioP1;P2;durP2;ratioP2
34673;SDS011;20879;55.668;37.858;2023-06-04T00:01:37;5.00;;;2.38;;
34673;SDS011;20879;55.668;37.858;2023-06-04T00:04:07;4.70;;;2.60;;
34673;SDS011;20879;55.668;37.858;2023-06-04T00:06:36;4.28;;;2.17;;
34673;SDS011;20879;55.668;37.858;2023-06-04T00:11:42;4.63;;;2.60;;
34673;SDS011;20879;55.668;37.858;2023-06-04T00:14:12;6.18;;;2.97;;
34673;SDS011;20879;55.668;37.858;2023-06-04T00:16:55;3.37;;;2.20;;
34673;SDS011;20879;55.668;37.858;2023-06-04T00:19:25;4.63;;;2.50;;
34673;SDS011;20879;55.668;37.858;2023-06-04T00:21:55;3.38;;;2.28;;
34673;SDS011;20879;55.668;37.858;2023-06-04T00:24:24;5.18;;;2.50;;
34673;SDS011;20879;55.668;37.858;2023-06-04T00:26:58;4.20;;;2.75;;
34673;SDS011;20879;55.668;37.858;2023-06-04T00:29:33;4.80;;;2.70;;
34673;SDS011;20879;55.668;37.858;2023-06-04T00:32:05;5.63;;;2.53;;
34673;SDS011;20879;55.668;37.858;2023-06-04T00:34:35;2.75;;;1.92;;
34673;SDS011;20879;55.668;37.858;2023-06-04T00:37:05;5.38;;;2.50;;
34673;SDS011;20879;55.668;37.858;2023-06-04T00:39:35;5.63;;;2.35;;
34673;SDS011;20879;55.668;37.858;2023-06-04T00:42:04;4.07;;;2.40;;
34673;SDS011;20879;55.668;37.858;2023-06-04T00:44:34;3.55;;;2.40;;
34673;SDS011;20879;55.668;37.858;2023-06-04T00:47:06;4.13;;;2.35;;
34673;SDS011;20879;55.668;37.858;2023-06-04T00:49:40;3.60;;;2.28;;
34673;SDS011;20879;55.668;37.858;2023-06-04T00:52:10;3.58;;;2.00;;
34673;SDS011;20879;55.668;37.858;2023-06-04T00:54:42;3.25;;;2.28;;
34673;SDS011;20879;55.668;37.858;2023-06-04T00:57:11;4.07;;;2.40;;
34673;SDS011;20879;55.668;37.858;2023-06-04T00:59:41;4.05;;;2.22;;
34673;SDS011;20879;55.668;37.858;2023-06-04T01:02:13;5.07;;;2.10;;
34673;SDS011;20879;55.668;37.858;2023-06-04T01:04:48;2.80;;;2.00;;
34673;SDS011;20879;55.668;37.858;2023-06-04T01:07:32;3.30;;;2.20;;
34673;SDS011;20879;55.668;37.858;2023-06-04T01:12:45;3.55;;;2.20;;
34673;SDS011;20879;55.668;37.858;2023-06-04T01:15:15;2.70;;;2.08;;
34673;SDS011;20879;55.668;37.858;2023-06-04T01:17:48;3.30;;;1.92;;
34673;SDS011;20879;55.668;37.858;2023-06-04T01:20:22;3.42;;;1.83;;
34673;SDS011;20879;55.668;37.858;2023-06-04T01:26:02;6.90;;;2.28;;
34673;SDS011;20879;55.668;37.858;2023-06-04T01:28:34;5.70;;;2.60;;
34673;SDS011;20879;55.668;37.858;2023-06-04T01:31:03;7.07;;;3.35;;
34673;SDS011;20879;55.668;37.858;2023-06-04T01:33:36;5.60;;;2.78;;
34673;SDS011;20879;55.668;37.858;2023-06-04T01:36:07;4.28;;;2.38;;
34673;SDS011;20879;55.668;37.858;2023-06-04T01:38:44;4.82;;;2.47;;
34673;SDS011;20879;55.668;37.858;2023-06-04T01:41:13;5.80;;;1.90;;
34673;SDS011;20879;55.668;37.858;2023-06-04T01:43:43;4.40;;;2.00;;
34673;SDS011;20879;55.668;37.858;2023-06-04T01:46:12;5.20;;;2.08;;
34673;SDS011;20879;55.668;37.858;2023-06-04T01:48:44;3.10;;;2.00;;
34673;SDS011;20879;55.668;37.858;2023-06-04T01:51:15;3.67;;;1.95;;
34673;SDS011;20879;55.668;37.858;2023-06-04T01:53:49;3.55;;;1.83;;
34673;SDS011;20879;55.668;37.858;2023-06-04T01:56:19;3.83;;;1.88;;
34673;SDS011;20879;55.668;37.858;2023-06-04T01:58:49;2.70;;;1.55;;
34673;SDS011;20879;55.668;37.858;2023-06-04T02:01:19;3.90;;;1.70;;
34673;SDS011;20879;55.668;37.858;2023-06-04T02:03:50;2.42;;;1.80;;
34673;SDS011;20879;55.668;37.858;2023-06-04T02:06:20;4.80;;;1.70;;
34673;SDS011;20879;55.668;37.858;2023-06-04T02:08:51;2.47;;;1.80;;
34673;SDS011;20879;55.668;37.858;2023-06-04T02:11:20;3.15;;;2.00;;
34673;SDS011;20879;55.668;37.858;2023-06-04T02:13:55;2.70;;;1.60;;
34673;SDS011;20879;55.668;37.858;2023-06-04T02:16:25;2.75;;;1.90;;
34673;SDS011;20879;55.668;37.858;2023-06-04T02:18:57;2.15;;;1.60;;
34673;SDS011;20879;55.668;37.858;2023-06-04T02:21:27;1.75;;;1.00;;
34673;SDS011;20879;55.668;37.858;2023-06-04T02:23:57;3.92;;;1.70;;
34673;SDS011;20879;55.668;37.858;2023-06-04T02:26:26;3.53;;;1.40;;
34673;SDS011;20879;55.668;37.858;2023-06-04T02:29:02;2.83;;;1.40;;
34673;SDS011;20879;55.668;37.858;2023-06-04T02:31:31;2.47;;;1.50;;
34673;SDS011;20879;55.668;37.858;2023-06-04T02:34:08;2.22;;;1.58;;
34673;SDS011;20879;55.668;37.858;2023-06-04T02:36:37;1.50;;;1.30;;
34673;SDS011;20879;55.668;37.858;2023-06-04T02:39:07;2.28;;;1.60;;
34673;SDS011;20879;55.668;37.858;2023-06-04T02:41:36;2.15;;;1.40;;
34673;SDS011;20879;55.668;37.858;2023-06-04T02:44:17;3.38;;;1.42;;
34673;SDS011;20879;55.668;37.858;2023-06-04T02:46:46;3.08;;;1.40;;
34673;SDS011;20879;55.668;37.858;2023-06-04T02:49:18;2.05;;;1.50;;
34673;SDS011;20879;55.668;37.858;2023-06-04T02:51:59;1.58;;;1.48;;
34673;SDS011;20879;55.668;37.858;2023-06-04T02:54:34;2.30;;;1.65;;
34673;SDS011;20879;55.668;37.858;2023-06-04T02:57:04;2.80;;;1.50;;
34673;SDS011;20879;55.668;37.858;2023-06-04T02:59:35;1.57;;;1.30;;
34673;SDS011;20879;55.668;37.858;2023-06-04T03:02:16;8.02;;;1.60;;
34673;SDS011;20879;55.668;37.858;2023-06-04T03:04:47;3.65;;;1.42;;
34673;SDS011;20879;55.668;37.858;2023-06-04T03:07:17;3.67;;;1.52;;
34673;SDS011;20879;55.668;37.858;2023-06-04T03:12:18;4.85;;;1.27;;
34673;SDS011;20879;55.668;37.858;2023-06-04T03:14:52;5.55;;;1.90;;
34673;SDS011;20879;55.668;37.858;2023-06-04T03:17:22;2.05;;;1.30;;
34673;SDS011;20879;55.668;37.858;2023-06-04T03:19:59;7.55;;;1.45;;
34673;SDS011;20879;55.668;37.858;2023-06-04T03:22:31;1.75;;;1.60;;
34673;SDS011;20879;55.668;37.858;2023-06-04T03:25:02;3.80;;;1.35;;
34673;SDS011;20879;55.668;37.858;2023-06-04T03:27:37;2.05;;;1.60;;
34673;SDS011;20879;55.668;37.858;2023-06-04T03:30:07;2.72;;;1.60;;
34673;SDS011;20879;55.668;37.858;2023-06-04T03:32:58;2.80;;;1.67;;
34673;SDS011;20879;55.668;37.858;2023-06-04T03:35:30;1.52;;;1.42;;
34673;SDS011;20879;55.668;37.858;2023-06-04T03:38:06;3.05;;;1.70;;
34673;SDS011;20879;55.668;37.858;2023-06-04T03:40:37;3.17;;;1.30;;
34673;SDS011;20879;55.668;37.858;2023-06-04T03:43:13;4.20;;;2.10;;
34673;SDS011;20879;55.668;37.858;2023-06-04T03:45:44;1.88;;;1.50;;
34673;SDS011;20879;55.668;37.858;2023-06-04T03:48:19;2.53;;;1.30;;
34673;SDS011;20879;55.668;37.858;2023-06-04T03:50:50;2.40;;;1.40;;
34673;SDS011;20879;55.668;37.858;2023-06-04T03:53:20;3.20;;;1.27;;
34673;SDS011;20879;55.668;37.858;2023-06-04T03:55:50;3.35;;;1.10;;
34673;SDS011;20879;55.668;37.858;2023-06-04T03:58:19;1.55;;;1.45;;
34673;SDS011;20879;55.668;37.858;2023-06-04T04:00:56;2.03;;;1.50;;
34673;SDS011;20879;55.668;37.858;2023-06-04T04:03:28;1.52;;;1.38;;
34673;SDS011;20879;55.668;37.858;2023-06-04T04:06:01;1.65;;;1.50;;
34673;SDS011;20879;55.668;37.858;2023-06-04T04:08:31;1.35;;;1.25;;
34673;SDS011;20879;55.668;37.858;2023-06-04T04:11:01;1.73;;;1.38;;
34673;SDS011;20879;55.668;37.858;2023-06-04T04:13:31;2.13;;;1.35;;
34673;SDS011;20879;55.668;37.858;2023-06-04T04:16:01;1.20;;;1.10;;
34673;SDS011;20879;55.668;37.858;2023-06-04T04:18:32;3.08;;;1.60;;
34673;SDS011;20879;55.668;37.858;2023-06-04T04:21:04;1.88;;;1.30;;
34673;SDS011;20879;55.668;37.858;2023-06-04T04:23:40;2.85;;;1.30;;
34673;SDS011;20879;55.668;37.858;2023-06-04T04:26:09;3.78;;;1.40;;
34673;SDS011;20879;55.668;37.858;2023-06-04T04:28:46;1.65;;;1.13;;
34673;SDS011;20879;55.668;37.858;2023-06-04T04:31:16;2.90;;;1.48;;
34673;SDS011;20879;55.668;37.858;2023-06-04T04:33:50;1.63;;;1.30;;
34673;SDS011;20879;55.668;37.858;2023-06-04T04:36:22;1.90;;;1.10;;
34673;SDS011;20879;55.668;37.858;2023-06-04T04:38:57;3.38;;;1.30;;
34673;SDS011;20879;55.668;37.858;2023-06-04T04:41:37;2.92;;;1.17;;
34673;SDS011;20879;55.668;37.858;2023-06-04T04:44:11;1.60;;;1.00;;
34673;SDS011;20879;55.668;37.858;2023-06-04T04:46:40;1.88;;;1.10;;
34673;SDS011;20879;55.668;37.858;2023-06-04T04:49:10;1.10;;;1.00;;
34673;SDS011;20879;55.668;37.858;2023-06-04T04:51:46;1.05;;;0.80;;
34673;SDS011;20879;55.668;37.858;2023-06-04T04:54:18;2.22;;;1.00;;
34673;SDS011;20879;55.668;37.858;2023-06-04T04:56:47;0.85;;;0.85;;
34673;SDS011;20879;55.668;37.858;2023-06-04T04:59:48;2.35;;;0.82;;
34673;SDS011;20879;55.668;37.858;2023-06-04T05:02:22;2.55;;;1.13;;
34673;SDS011;20879;55.668;37.858;2023-06-04T05:04:57;1.20;;;1.10;;
34673;SDS011;20879;55.668;37.858;2023-06-04T05:07:29;2.55;;;0.93;;
34673;SDS011;20879;55.668;37.858;2023-06-04T05:12:52;1.10;;;0.90;;
34673;SDS011;20879;55.668;37.858;2023-06-04T05:15:34;1.77;;;0.90;;
34673;SDS011;20879;55.668;37.858;2023-06-04T05:18:03;4.45;;;1.17;;
34673;SDS011;20879;55.668;37.858;2023-06-04T05:20:36;2.83;;;1.08;;
34673;SDS011;20879;55.668;37.858;2023-06-04T05:23:11;0.70;;;0.70;;
34673;SDS011;20879;55.668;37.858;2023-06-04T05:25:48;1.75;;;0.73;;
34673;SDS011;20879;55.668;37.858;2023-06-04T05:28:19;1.42;;;0.98;;
34673;SDS011;20879;55.668;37.858;2023-06-04T05:30:51;1.42;;;0.95;;
34673;SDS011;20879;55.668;37.858;2023-06-04T05:33:30;1.95;;;0.80;;
34673;SDS011;20879;55.668;37.858;2023-06-04T05:36:04;3.22;;;1.10;;
34673;SDS011;20879;55.668;37.858;2023-06-04T05:38:43;0.80;;;0.80;;
34673;SDS011;20879;55.668;37.858;2023-06-04T05:43:51;0.70;;;0.70;;
34673;SDS011;20879;55.668;37.858;2023-06-04T05:46:20;2.65;;;0.80;;
34673;SDS011;20879;55.668;37.858;2023-06-04T05:48:51;0.60;;;0.60;;
34673;SDS011;20879;55.668;37.858;2023-06-04T05:51:22;1.70;;;1.07;;
34673;SDS011;20879;55.668;37.858;2023-06-04T05:53:54;1.50;;;1.17;;
34673;SDS011;20879;55.668;37.858;2023-06-04T05:56:30;1.17;;;1.02;;
34673;SDS011;20879;55.668;37.858;2023-06-04T05:59:00;1.23;;;0.75;;
34673;SDS011;20879;55.668;37.858;2023-06-04T06:01:29;0.85;;;0.70;;
34673;SDS011;20879;55.668;37.858;2023-06-04T06:03:59;1.70;;;0.85;;
34673;SDS011;20879;55.668;37.858;2023-06-04T06:06:30;1.08;;;0.98;;
34673;SDS011;20879;55.668;37.858;2023-06-04T06:09:06;1.27;;;0.70;;
34673;SDS011;20879;55.668;37.858;2023-06-04T06:11:42;1.52;;;0.93;;
34673;SDS011;20879;55.668;37.858;2023-06-04T06:14:12;0.85;;;0.70;;
34673;SDS011;20879;55.668;37.858;2023-06-04T06:16:47;2.25;;;1.08;;
34673;SDS011;20879;55.668;37.858;2023-06-04T06:19:17;1.85;;;1.20;;
34673;SDS011;20879;55.668;37.858;2023-06-04T06:21:46;1.02;;;0.90;;
34673;SDS011;20879;55.668;37.858;2023-06-04T06:24:19;1.20;;;0.70;;
34673;SDS011;20879;55.668;37.858;2023-06-04T06:26:54;1.45;;;1.02;;
34673;SDS011;20879;55.668;37.858;2023-06-04T06:29:23;1.58;;;0.90;;
34673;SDS011;20879;55.668;37.858;2023-06-04T06:31:53;3.28;;;0.88;;
34673;SDS011;20879;55.668;37.858;2023-06-04T06:34:23;0.82;;;0.82;;
34673;SDS011;20879;55.668;37.858;2023-06-04T06:36:53;1.00;;;0.80;;
34673;SDS011;20879;55.668;37.858;2023-06-04T06:39:31;0.80;;;0.80;;
34673;SDS011;20879;55.668;37.858;2023-06-04T06:42:01;1.27;;;0.80;;
34673;SDS011;20879;55.668;37.858;2023-06-04T06:44:36;1.23;;;0.88;;
34673;SDS011;20879;55.668;37.858;2023-06-04T06:47:05;1.58;;;0.90;;
34673;SDS011;20879;55.668;37.858;2023-06-04T06:49:41;5.20;;;1.50;;
34673;SDS011;20879;55.668;37.858;2023-06-04T06:52:11;0.85;;;0.82;;
34673;SDS011;20879;55.668;37.858;2023-06-04T06:54:48;3.28;;;0.77;;
34673;SDS011;20879;55.668;37.858;2023-06-04T06:57:19;1.48;;;0.70;;
34673;SDS011;20879;55.668;37.858;2023-06-04T06:59:53;1.88;;;0.80;;
34673;SDS011;20879;55.668;37.858;2023-06-04T07:02:23;1.10;;;0.70;;
34673;SDS011;20879;55.668;37.858;2023-06-04T07:04:58;0.90;;;0.65;;
34673;SDS011;20879;55.668;37.858;2023-06-04T07:07:31;2.05;;;0.73;;
34673;SDS011;20879;55.668;37.858;2023-06-04T07:10:03;1.30;;;0.80;;
34673;SDS011;20879;55.668;37.858;2023-06-04T07:12:33;1.73;;;0.80;;
34673;SDS011;20879;55.668;37.858;2023-06-04T07:15:03;0.77;;;0.70;;
34673;SDS011;20879;55.668;37.858;2023-06-04T07:17:35;0.98;;;0.80;;
34673;SDS011;20879;55.668;37.858;2023-06-04T07:20:06;1.08;;;0.90;;
34673;SDS011;20879;55.668;37.858;2023-06-04T07:22:37;2.72;;;1.08;;
34673;SDS011;20879;55.668;37.858;2023-06-04T07:25:09;3.55;;;1.35;;
34673;SDS011;20879;55.668;37.858;2023-06-04T07:30:08;2.17;;;1.15;;
34673;SDS011;20879;55.668;37.858;2023-06-04T07:32:45;2.13;;;0.88;;
34673;SDS011;20879;55.668;37.858;2023-06-04T07:35:23;3.60;;;0.90;;
34673;SDS011;20879;55.668;37.858;2023-06-04T07:37:52;1.40;;;0.88;;
34673;SDS011;20879;55.668;37.858;2023-06-04T07:40:24;3.78;;;1.35;;
34673;SDS011;20879;55.668;37.858;2023-06-04T07:43:03;1.15;;;0.70;;
34673;SDS011;20879;55.668;37.858;2023-06-04T07:45:33;0.63;;;0.63;;
34673;SDS011;20879;55.668;37.858;2023-06-04T07:48:02;0.80;;;0.80;;
34673;SDS011;20879;55.668;37.858;2023-06-04T07:50:33;0.63;;;0.50;;
34673;SDS011;20879;55.668;37.858;2023-06-04T07:53:07;1.02;;;0.70;;
34673;SDS011;20879;55.668;37.858;2023-06-04T07:55:47;7.30;;;1.10;;
34673;SDS011;20879;55.668;37.858;2023-06-04T07:58:18;5.57;;;1.30;;
34673;SDS011;20879;55.668;37.858;2023-06-04T08:00:48;1.10;;;0.80;;
34673;SDS011;20879;55.668;37.858;2023-06-04T08:03:17;1.17;;;0.88;;
34673;SDS011;20879;55.668;37.858;2023-06-04T08:05:53;3.47;;;0.70;;
34673;SDS011;20879;55.668;37.858;2023-06-04T08:08:22;0.70;;;0.70;;
34673;SDS011;20879;55.668;37.858;2023-06-04T08:10:54;1.00;;;0.77;;
34673;SDS011;20879;55.668;37.858;2023-06-04T08:13:23;3.22;;;1.25;;
34673;SDS011;20879;55.668;37.858;2023-06-04T08:15:53;1.80;;;0.77;;
34673;SDS011;20879;55.668;37.858;2023-06-04T08:18:48;1.20;;;0.82;;
34673;SDS011;20879;55.668;37.858;2023-06-04T08:21:37;1.13;;;0.68;;
34673;SDS011;20879;55.668;37.858;2023-06-04T08:24:13;2.55;;;0.80;;
34673;SDS011;20879;55.668;37.858;2023-06-04T08:27:05;2.80;;;0.80;;
34673;SDS011;20879;55.668;37.858;2023-06-04T08:29:35;5.72;;;2.70;;
34673;SDS011;20879;55.668;37.858;2023-06-04T08:32:32;2.03;;;0.95;;
34673;SDS011;20879;55.668;37.858;2023-06-04T08:35:09;0.68;;;0.68;;
34673;SDS011;20879;55.668;37.858;2023-06-04T08:37:44;1.75;;;0.63;;
34673;SDS011;20879;55.668;37.858;2023-06-04T08:40:14;0.73;;;0.70;;
34673;SDS011;20879;55.668;37.858;2023-06-04T08:42:47;5.18;;;2.55;;
34673;SDS011;20879;55.668;37.858;2023-06-04T08:45:17;1.30;;;0.90;;
34673;SDS011;20879;55.668;37.858;2023-06-04T08:47:50;1.52;;;0.95;;
34673;SDS011;20879;55.668;37.858;2023-06-04T08:50:20;0.75;;;0.75;;
34673;SDS011;20879;55.668;37.858;2023-06-04T08:52:52;3.22;;;1.10;;
34673;SDS011;20879;55.668;37.858;2023-06-04T08:55:29;0.80;;;0.80;;
34673;SDS011;20879;55.668;37.858;2023-06-04T08:58:07;2.55;;;0.82;;
34673;SDS011;20879;55.668;37.858;2023-06-04T09:00:40;1.77;;;1.23;;
34673;SDS011;20879;55.668;37.858;2023-06-04T09:03:10;4.65;;;1.25;;
34673;SDS011;20879;55.668;37.858;2023-06-04T09:05:47;1.13;;;0.90;;
34673;SDS011;20879;55.668;37.858;2023-06-04T09:08:23;1.50;;;0.98;;
34673;SDS011;20879;55.668;37.858;2023-06-04T09:11:01;1.73;;;0.90;;
34673;SDS011;20879;55.668;37.858;2023-06-04T09:16:16;1.02;;;0.93;;
34673;SDS011;20879;55.668;37.858;2023-06-04T09:18:47;2.03;;;1.02;;
34673;SDS011;20879;55.668;37.858;2023-06-04T09:21:17;0.70;;;0.70;;
34673;SDS011;20879;55.668;37.858;2023-06-04T09:23:47;1.23;;;0.90;;
34673;SDS011;20879;55.668;37.858;2023-06-04T09:26:22;0.95;;;0.85;;
34673;SDS011;20879;55.668;37.858;2023-06-04T09:28:55;2.13;;;0.60;;
34673;SDS011;20879;55.668;37.858;2023-06-04T09:31:37;2.45;;;1.00;;
34673;SDS011;20879;55.668;37.858;2023-06-04T09:34:07;2.78;;;0.95;;
34673;SDS011;20879;55.668;37.858;2023-06-04T09:36:48;7.03;;;2.75;;
34673;SDS011;20879;55.668;37.858;2023-06-04T09:39:18;2.00;;;1.05;;
34673;SDS011;20879;55.668;37.858;2023-06-04T09:41:56;1.33;;;0.90;;
34673;SDS011;20879;55.668;37.858;2023-06-04T09:44:44;1.35;;;0.93;;
34673;SDS011;20879;55.668;37.858;2023-06-04T09:47:14;2.20;;;1.00;;
34673;SDS011;20879;55.668;37.858;2023-06-04T09:49:44;1.17;;;0.95;;
34673;SDS011;20879;55.668;37.858;2023-06-04T09:52:16;4.10;;;1.20;;
34673;SDS011;20879;55.668;37.858;2023-06-04T09:54:47;2.15;;;0.90;;
34673;SDS011;20879;55.668;37.858;2023-06-04T09:57:17;1.20;;;0.90;;
34673;SDS011;20879;55.668;37.858;2023-06-04T09:59:50;1.63;;;0.85;;
34673;SDS011;20879;55.668;37.858;2023-06-04T10:02:22;1.05;;;0.60;;
34673;SDS011;20879;55.668;37.858;2023-06-04T10:04:56;2.28;;;0.80;;
34673;SDS011;20879;55.668;37.858;2023-06-04T10:07:28;1.45;;;0.85;;
34673;SDS011;20879;55.668;37.858;2023-06-04T10:09:59;0.77;;;0.77;;
34673;SDS011;20879;55.668;37.858;2023-06-04T10:12:30;1.85;;;1.00;;
34673;SDS011;20879;55.668;37.858;2023-06-04T10:15:07;1.17;;;0.90;;
34673;SDS011;20879;55.668;37.858;2023-06-04T10:17:46;1.58;;;0.90;;
34673;SDS011;20879;55.668;37.858;2023-06-04T10:20:17;1.48;;;0.88;;
34673;SDS011;20879;55.668;37.858;2023-06-04T10:22:48;1.23;;;0.88;;
34673;SDS011;20879;55.668;37.858;2023-06-04T10:25:19;3.47;;;0.95;;
34673;SDS011;20879;55.668;37.858;2023-06-04T10:27:50;1.85;;;1.05;;
34673;SDS011;20879;55.668;37.858;2023-06-04T10:30:24;2.25;;;1.15;;
34673;SDS011;20879;55.668;37.858;2023-06-04T10:35:29;2.10;;;1.00;;
34673;SDS011;20879;55.668;37.858;2023-06-04T10:38:06;2.60;;;1.13;;
34673;SDS011;20879;55.668;37.858;2023-06-04T10:40:37;0.80;;;0.80;;
34673;SDS011;20879;55.668;37.858;2023-06-04T10:43:07;2.00;;;1.10;;
34673;SDS011;20879;55.668;37.858;2023-06-04T10:45:45;2.60;;;1.30;;
34673;SDS011;20879;55.668;37.858;2023-06-04T10:48:20;6.05;;;1.48;;
34673;SDS011;20879;55.668;37.858;2023-06-04T10:50:50;4.10;;;1.00;;
34673;SDS011;20879;55.668;37.858;2023-06-04T10:53:20;2.97;;;1.10;;
34673;SDS011;20879;55.668;37.858;2023-06-04T10:55:50;2.55;;;1.40;;
34673;SDS011;20879;55.668;37.858;2023-06-04T10:58:31;1.35;;;1.00;;
34673;SDS011;20879;55.668;37.858;2023-06-04T11:01:04;1.60;;;1.10;;
34673;SDS011;20879;55.668;37.858;2023-06-04T11:03:35;2.97;;;1.25;;
34673;SDS011;20879;55.668;37.858;2023-06-04T11:06:14;2.67;;;1.10;;
34673;SDS011;20879;55.668;37.858;2023-06-04T11:08:45;3.28;;;1.23;;
34673;SDS011;20879;55.668;37.858;2023-06-04T11:11:16;1.13;;;0.90;;
34673;SDS011;20879;55.668;37.858;2023-06-04T11:13:46;3.92;;;1.40;;
34673;SDS011;20879;55.668;37.858;2023-06-04T11:16:17;1.30;;;0.93;;
34673;SDS011;20879;55.668;37.858;2023-06-04T11:18:54;2.72;;;1.20;;
34673;SDS011;20879;55.668;37.858;2023-06-04T11:21:29;0.70;;;0.68;;
34673;SDS011;20879;55.668;37.858;2023-06-04T11:23:59;1.25;;;0.93;;
34673;SDS011;20879;55.668;37.858;2023-06-04T11:26:30;3.20;;;1.13;;
34673;SDS011;20879;55.668;37.858;2023-06-04T11:29:00;1.20;;;1.10;;
34673;SDS011;20879;55.668;37.858;2023-06-04T11:31:42;2.28;;;1.35;;
34673;SDS011;20879;55.668;37.858;2023-06-04T11:34:21;2.65;;;1.30;;
34673;SDS011;20879;55.668;37.858;2023-06-04T11:36:51;2.35;;;1.42;;
34673;SDS011;20879;55.668;37.858;2023-06-04T11:39:21;3.58;;;1.52;;
34673;SDS011;20879;55.668;37.858;2023-06-04T11:41:51;2.28;;;1.60;;
34673;SDS011;20879;55.668;37.858;2023-06-04T11:44:26;1.85;;;1.27;;
34673;SDS011;20879;55.668;37.858;2023-06-04T11:46:58;2.65;;;1.50;;
34673;SDS011;20879;55.668;37.858;2023-06-04T11:49:33;2.78;;;1.10;;
34673;SDS011;20879;55.668;37.858;2023-06-04T11:52:04;1.85;;;0.95;;
34673;SDS011;20879;55.668;37.858;2023-06-04T11:54:34;2.35;;;1.08;;
34673;SDS011;20879;55.668;37.858;2023-06-04T11:57:07;3.78;;;1.08;;
34673;SDS011;20879;55.668;37.858;2023-06-04T11:59:36;1.75;;;1.20;;
34673;SDS011;20879;55.668;37.858;2023-06-04T12:02:08;1.20;;;1.10;;
34673;SDS011;20879;55.668;37.858;2023-06-04T12:04:38;1.48;;;1.38;;
34673;SDS011;20879;55.668;37.858;2023-06-04T12:07:07;3.25;;;1.33;;
34673;SDS011;20879;55.668;37.858;2023-06-04T12:09:52;1.45;;;1.20;;
34673;SDS011;20879;55.668;37.858;2023-06-04T12:12:22;2.33;;;1.80;;
34673;SDS011;20879;55.668;37.858;2023-06-04T12:14:58;3.53;;;1.20;;
34673;SDS011;20879;55.668;37.858;2023-06-04T12:17:34;2.17;;;1.20;;
34673;SDS011;20879;55.668;37.858;2023-06-04T12:20:06;2.67;;;1.42;;
34673;SDS011;20879;55.668;37.858;2023-06-04T12:22:44;2.20;;;1.10;;
34673;SDS011;20879;55.668;37.858;2023-06-04T12:25:23;1.42;;;1.10;;
34673;SDS011;20879;55.668;37.858;2023-06-04T12:27:54;1.40;;;1.17;;
34673;SDS011;20879;55.668;37.858;2023-06-04T12:30:23;3.88;;;1.02;;
34673;SDS011;20879;55.668;37.858;2023-06-04T12:33:12;2.08;;;0.90;;
34673;SDS011;20879;55.668;37.858;2023-06-04T12:38:11;4.78;;;1.15;;
34673;SDS011;20879;55.668;37.858;2023-06-04T12:40:41;1.33;;;1.20;;
34673;SDS011;20879;55.668;37.858;2023-06-04T12:43:12;1.40;;;1.20;;
34673;SDS011;20879;55.668;37.858;2023-06-04T12:51:01;1.55;;;1.30;;
34673;SDS011;20879;55.668;37.858;2023-06-04T12:53:32;4.47;;;1.73;;
34673;SDS011;20879;55.668;37.858;2023-06-04T12:56:01;2.40;;;1.40;;
34673;SDS011;20879;55.668;37.858;2023-06-04T12:58:32;1.15;;;1.05;;
34673;SDS011;20879;55.668;37.858;2023-06-04T13:01:04;2.25;;;1.35;;
34673;SDS011;20879;55.668;37.858;2023-06-04T13:03:35;2.45;;;1.20;;
34673;SDS011;20879;55.668;37.858;2023-06-04T13:06:13;1.85;;;1.33;;
34673;SDS011;20879;55.668;37.858;2023-06-04T13:08:43;1.10;;;0.82;;
34673;SDS011;20879;55.668;37.858;2023-06-04T13:11:12;5.60;;;1.48;;
34673;SDS011;20879;55.668;37.858;2023-06-04T13:13:42;1.65;;;1.17;;
34673;SDS011;20879;55.668;37.858;2023-06-04T13:16:11;4.90;;;1.15;;
34673;SDS011;20879;55.668;37.858;2023-06-04T13:18:56;3.80;;;1.00;;
34673;SDS011;20879;55.668;37.858;2023-06-04T13:21:28;1.65;;;0.95;;
34673;SDS011;20879;55.668;37.858;2023-06-04T13:23:58;1.50;;;1.30;;
34673;SDS011;20879;55.668;37.858;2023-06-04T13:26:27;3.00;;;1.15;;
34673;SDS011;20879;55.668;37.858;2023-06-04T13:28:57;1.20;;;1.00;;
34673;SDS011;20879;55.668;37.858;2023-06-04T13:31:26;1.50;;;1.10;;
34673;SDS011;20879;55.668;37.858;2023-06-04T13:33:57;1.67;;;1.20;;
34673;SDS011;20879;55.668;37.858;2023-06-04T13:36:42;3.13;;;1.20;;
34673;SDS011;20879;55.668;37.858;2023-06-04T13:39:12;2.13;;;1.08;;
34673;SDS011;20879;55.668;37.858;2023-06-04T13:41:41;1.90;;;1.05;;
34673;SDS011;20879;55.668;37.858;2023-06-04T13:44:12;1.83;;;1.23;;
34673;SDS011;20879;55.668;37.858;2023-06-04T13:46:42;1.50;;;1.00;;
34673;SDS011;20879;55.668;37.858;2023-06-04T13:49:11;1.23;;;1.10;;
34673;SDS011;20879;55.668;37.858;2023-06-04T13:51:48;2.28;;;1.08;;
34673;SDS011;20879;55.668;37.858;2023-06-04T13:54:17;3.22;;;1.30;;
34673;SDS011;20879;55.668;37.858;2023-06-04T13:56:47;3.35;;;2.97;;
34673;SDS011;20879;55.668;37.858;2023-06-04T13:59:17;4.45;;;1.20;;
34673;SDS011;20879;55.668;37.858;2023-06-04T14:02:05;4.82;;;1.80;;
34673;SDS011;20879;55.668;37.858;2023-06-04T14:04:35;2.85;;;1.20;;
34673;SDS011;20879;55.668;37.858;2023-06-04T14:07:06;3.10;;;1.05;;
34673;SDS011;20879;55.668;37.858;2023-06-04T14:09:36;3.42;;;1.45;;
34673;SDS011;20879;55.668;37.858;2023-06-04T14:12:06;2.22;;;1.30;;
34673;SDS011;20879;55.668;37.858;2023-06-04T14:14:37;1.85;;;1.00;;
34673;SDS011;20879;55.668;37.858;2023-06-04T14:17:06;1.60;;;1.20;;
34673;SDS011;20879;55.668;37.858;2023-06-04T14:19:36;3.75;;;1.20;;
34673;SDS011;20879;55.668;37.858;2023-06-04T14:22:13;2.65;;;1.73;;
34673;SDS011;20879;55.668;37.858;2023-06-04T14:24:43;23.23;;;2.90;;
34673;SDS011;20879;55.668;37.858;2023-06-04T14:27:13;4.10;;;1.35;;
34673;SDS011;20879;55.668;37.858;2023-06-04T14:29:42;2.03;;;1.52;;
34673;SDS011;20879;55.668;37.858;2023-06-04T14:32:12;2.67;;;1.65;;
34673;SDS011;20879;55.668;37.858;2023-06-04T14:34:42;2.03;;;1.75;;
34673;SDS011;20879;55.668;37.858;2023-06-04T14:37:19;6.28;;;1.50;;
34673;SDS011;20879;55.668;37.858;2023-06-04T14:39:54;2.70;;;1.45;;
34673;SDS011;20879;55.668;37.858;2023-06-04T14:42:24;2.15;;;1.52;;
34673;SDS011;20879;55.668;37.858;2023-06-04T14:44:54;2.70;;;1.30;;
34673;SDS011;20879;55.668;37.858;2023-06-04T14:47:32;3.15;;;1.10;;
34673;SDS011;20879;55.668;37.858;2023-06-04T14:50:08;2.60;;;2.17;;
34673;SDS011;20879;55.668;37.858;2023-06-04T14:52:40;3.50;;;1.40;;
34673;SDS011;20879;55.668;37.858;2023-06-04T14:55:10;3.17;;;2.08;;
34673;SDS011;20879;55.668;37.858;2023-06-04T14:57:39;2.35;;;1.83;;
34673;SDS011;20879;55.668;37.858;2023-06-04T15:00:14;5.05;;;1.40;;
34673;SDS011;20879;55.668;37.858;2023-06-04T15:02:44;3.28;;;1.67;;
34673;SDS011;20879;55.668;37.858;2023-06-04T15:05:13;4.15;;;2.13;;
34673;SDS011;20879;55.668;37.858;2023-06-04T15:07:45;3.17;;;1.40;;
34673;SDS011;20879;55.668;37.858;2023-06-04T15:10:14;3.53;;;1.27;;
34673;SDS011;20879;55.668;37.858;2023-06-04T15:12:44;3.55;;;1.60;;
34673;SDS011;20879;55.668;37.858;2023-06-04T15:15:13;2.47;;;1.20;;
34673;SDS011;20879;55.668;37.858;2023-06-04T15:17:43;2.25;;;1.00;;
34673;SDS011;20879;55.668;37.858;2023-06-04T15:20:14;2.10;;;1.23;;
34673;SDS011;20879;55.668;37.858;2023-06-04T15:22:45;2.35;;;1.60;;
34673;SDS011;20879;55.668;37.858;2023-06-04T15:25:15;2.20;;;1.40;;
34673;SDS011;20879;55.668;37.858;2023-06-04T15:27:46;1.25;;;1.15;;
34673;SDS011;20879;55.668;37.858;2023-06-04T15:30:16;1.92;;;1.35;;
34673;SDS011;20879;55.668;37.858;2023-06-04T15:32:52;3.40;;;1.30;;
34673;SDS011;20879;55.668;37.858;2023-06-04T15:35:21;2.67;;;1.48;;
34673;SDS011;20879;55.668;37.858;2023-06-04T15:37:53;2.28;;;1.52;;